sensor_id;sensor_type;location;lat;lon;timestamp;P1;durP1;ratioP1;P2;durP2;ratioP2
63095;SDS011;49184;55.596;37.770;2023-01-05T00:01:33;1.05;;;0.98;;
63095;SDS011;49184;55.596;37.770;2023-01-05T00:03:59;7.53;;;1.57;;
63095;SDS011;49184;55.596;37.770;2023-01-05T00:06:25;1.55;;;1.00;;
63095;SDS011;49184;55.596;37.770;2023-01-05T00:08:51;1.80;;;1.20;;
63095;SDS011;49184;55.596;37.770;2023-01-05T00:11:19;4.22;;;1.40;;
63095;SDS011;49184;55.596;37.770;2023-01-05T00:14:06;2.25;;;1.08;;
63095;SDS011;49184;55.596;37.770;2023-01-05T00:16:57;1.63;;;1.10;;
63095;SDS011;49184;55.596;37.770;2023-01-05T00:19:42;3.22;;;1.30;;
63095;SDS011;49184;55.596;37.770;2023-01-05T00:24:56;1.88;;;1.10;;
63095;SDS011;49184;55.596;37.770;2023-01-05T00:27:34;1.80;;;1.30;;
63095;SDS011;49184;55.596;37.770;2023-01-05T00:30:03;3.83;;;1.50;;
63095;SDS011;49184;55.596;37.770;2023-01-05T00:32:31;2.42;;;1.50;;
63095;SDS011;49184;55.596;37.770;2023-01-05T00:34:58;2.30;;;1.30;;
63095;SDS011;49184;55.596;37.770;2023-01-05T00:37:25;1.88;;;1.20;;
63095;SDS011;49184;55.596;37.770;2023-01-05T00:39:53;1.00;;;0.90;;
63095;SDS011;49184;55.596;37.770;2023-01-05T00:42:19;1.73;;;1.03;;
63095;SDS011;49184;55.596;37.770;2023-01-05T00:44:45;1.95;;;1.30;;
63095;SDS011;49184;55.596;37.770;2023-01-05T00:47:12;1.88;;;1.20;;
63095;SDS011;49184;55.596;37.770;2023-01-05T00:49:38;1.45;;;1.10;;
63095;SDS011;49184;55.596;37.770;2023-01-05T00:52:04;3.97;;;1.58;;
63095;SDS011;49184;55.596;37.770;2023-01-05T00:57:06;1.95;;;1.30;;
63095;SDS011;49184;55.596;37.770;2023-01-05T00:59:35;2.33;;;1.08;;
63095;SDS011;49184;55.596;37.770;2023-01-05T01:02:01;2.15;;;1.30;;
63095;SDS011;49184;55.596;37.770;2023-01-05T01:04:29;2.03;;;1.13;;
63095;SDS011;49184;55.596;37.770;2023-01-05T01:06:56;1.65;;;1.30;;
63095;SDS011;49184;55.596;37.770;2023-01-05T01:09:22;1.58;;;1.20;;
63095;SDS011;49184;55.596;37.770;2023-01-05T01:11:48;5.15;;;1.48;;
63095;SDS011;49184;55.596;37.770;2023-01-05T01:14:14;3.08;;;1.42;;
63095;SDS011;49184;55.596;37.770;2023-01-05T01:16:41;1.75;;;1.10;;
63095;SDS011;49184;55.596;37.770;2023-01-05T01:19:08;1.70;;;1.10;;
63095;SDS011;49184;55.596;37.770;2023-01-05T01:21:39;2.30;;;1.25;;
63095;SDS011;49184;55.596;37.770;2023-01-05T01:24:05;2.20;;;1.58;;
63095;SDS011;49184;55.596;37.770;2023-01-05T01:26:31;1.98;;;0.70;;
63095;SDS011;49184;55.596;37.770;2023-01-05T01:28:57;1.17;;;0.93;;
63095;SDS011;49184;55.596;37.770;2023-01-05T01:31:23;1.70;;;1.20;;
63095;SDS011;49184;55.596;37.770;2023-01-05T01:33:49;2.55;;;1.42;;
63095;SDS011;49184;55.596;37.770;2023-01-05T01:36:16;2.38;;;1.38;;
63095;SDS011;49184;55.596;37.770;2023-01-05T01:38:43;1.58;;;1.20;;
63095;SDS011;49184;55.596;37.770;2023-01-05T01:41:10;2.30;;;1.52;;
63095;SDS011;49184;55.596;37.770;2023-01-05T01:43:48;4.60;;;1.73;;
63095;SDS011;49184;55.596;37.770;2023-01-05T01:46:18;3.28;;;1.80;;
63095;SDS011;49184;55.596;37.770;2023-01-05T01:48:55;3.15;;;1.55;;
63095;SDS011;49184;55.596;37.770;2023-01-05T01:51:37;1.70;;;1.38;;
63095;SDS011;49184;55.596;37.770;2023-01-05T01:54:13;2.67;;;1.67;;
63095;SDS011;49184;55.596;37.770;2023-01-05T01:56:44;1.85;;;1.50;;
63095;SDS011;49184;55.596;37.770;2023-01-05T01:59:16;2.47;;;1.60;;
63095;SDS011;49184;55.596;37.770;2023-01-05T02:01:47;2.13;;;1.55;;
63095;SDS011;49184;55.596;37.770;2023-01-05T02:04:16;1.73;;;1.33;;
63095;SDS011;49184;55.596;37.770;2023-01-05T02:06:44;2.53;;;1.50;;
63095;SDS011;49184;55.596;37.770;2023-01-05T02:09:10;2.63;;;1.80;;
63095;SDS011;49184;55.596;37.770;2023-01-05T02:11:45;5.18;;;2.40;;
63095;SDS011;49184;55.596;37.770;2023-01-05T02:17:35;5.38;;;2.72;;
63095;SDS011;49184;55.596;37.770;2023-01-05T02:29:14;3.67;;;2.10;;
63095;SDS011;49184;55.596;37.770;2023-01-05T02:32:04;4.10;;;2.63;;
63095;SDS011;49184;55.596;37.770;2023-01-05T02:40:54;5.35;;;2.70;;
63095;SDS011;49184;55.596;37.770;2023-01-05T02:43:23;4.85;;;2.90;;
63095;SDS011;49184;55.596;37.770;2023-01-05T02:45:53;4.22;;;2.08;;
63095;SDS011;49184;55.596;37.770;2023-01-05T02:50:55;4.57;;;2.65;;
63095;SDS011;49184;55.596;37.770;2023-01-05T02:54:00;4.72;;;2.40;;
63095;SDS011;49184;55.596;37.770;2023-01-05T02:56:28;4.28;;;2.55;;
63095;SDS011;49184;55.596;37.770;2023-01-05T02:59:07;6.80;;;2.88;;
63095;SDS011;49184;55.596;37.770;2023-01-05T03:01:45;8.20;;;2.78;;
63095;SDS011;49184;55.596;37.770;2023-01-05T03:04:19;4.43;;;2.80;;
63095;SDS011;49184;55.596;37.770;2023-01-05T03:07:01;4.90;;;3.17;;
63095;SDS011;49184;55.596;37.770;2023-01-05T03:09:33;5.18;;;2.45;;
63095;SDS011;49184;55.596;37.770;2023-01-05T03:17:59;8.02;;;3.67;;
63095;SDS011;49184;55.596;37.770;2023-01-05T03:20:33;5.65;;;3.15;;
63095;SDS011;49184;55.596;37.770;2023-01-05T03:23:04;6.68;;;3.72;;
63095;SDS011;49184;55.596;37.770;2023-01-05T03:25:52;6.38;;;3.92;;
63095;SDS011;49184;55.596;37.770;2023-01-05T03:28:40;7.50;;;3.92;;
63095;SDS011;49184;55.596;37.770;2023-01-05T03:32:07;8.38;;;3.78;;
63095;SDS011;49184;55.596;37.770;2023-01-05T03:40:28;11.15;;;5.20;;
63095;SDS011;49184;55.596;37.770;2023-01-05T03:42:57;9.52;;;5.05;;
63095;SDS011;49184;55.596;37.770;2023-01-05T03:45:25;11.15;;;5.65;;
63095;SDS011;49184;55.596;37.770;2023-01-05T03:48:18;10.30;;;5.07;;
63095;SDS011;49184;55.596;37.770;2023-01-05T03:50:46;12.70;;;5.70;;
63095;SDS011;49184;55.596;37.770;2023-01-05T03:53:14;11.65;;;5.15;;
63095;SDS011;49184;55.596;37.770;2023-01-05T03:55:46;11.95;;;5.55;;
63095;SDS011;49184;55.596;37.770;2023-01-05T03:58:13;11.85;;;5.32;;
63095;SDS011;49184;55.596;37.770;2023-01-05T04:00:43;11.68;;;5.28;;
63095;SDS011;49184;55.596;37.770;2023-01-05T04:03:11;10.25;;;4.90;;
63095;SDS011;49184;55.596;37.770;2023-01-05T04:05:38;11.17;;;5.10;;
63095;SDS011;49184;55.596;37.770;2023-01-05T04:08:04;13.13;;;4.85;;
63095;SDS011;49184;55.596;37.770;2023-01-05T04:10:33;8.93;;;4.25;;
63095;SDS011;49184;55.596;37.770;2023-01-05T04:13:00;7.15;;;3.88;;
63095;SDS011;49184;55.596;37.770;2023-01-05T04:15:27;7.35;;;3.45;;
63095;SDS011;49184;55.596;37.770;2023-01-05T04:17:55;7.20;;;3.88;;
63095;SDS011;49184;55.596;37.770;2023-01-05T04:20:21;8.82;;;4.20;;
63095;SDS011;49184;55.596;37.770;2023-01-05T04:22:49;8.95;;;3.90;;
63095;SDS011;49184;55.596;37.770;2023-01-05T04:25:18;11.38;;;4.05;;
63095;SDS011;49184;55.596;37.770;2023-01-05T04:27:44;5.88;;;3.70;;
63095;SDS011;49184;55.596;37.770;2023-01-05T04:30:11;8.20;;;3.83;;
63095;SDS011;49184;55.596;37.770;2023-01-05T04:32:39;7.90;;;3.60;;
63095;SDS011;49184;55.596;37.770;2023-01-05T04:35:13;5.82;;;3.53;;
63095;SDS011;49184;55.596;37.770;2023-01-05T04:37:41;8.57;;;4.28;;
63095;SDS011;49184;55.596;37.770;2023-01-05T04:40:08;7.30;;;4.05;;
63095;SDS011;49184;55.596;37.770;2023-01-05T04:42:48;9.10;;;4.10;;
63095;SDS011;49184;55.596;37.770;2023-01-05T04:48:07;8.70;;;4.20;;
63095;SDS011;49184;55.596;37.770;2023-01-05T04:50:33;8.13;;;4.82;;
63095;SDS011;49184;55.596;37.770;2023-01-05T04:53:09;8.70;;;4.55;;
63095;SDS011;49184;55.596;37.770;2023-01-05T04:55:39;8.73;;;4.53;;
63095;SDS011;49184;55.596;37.770;2023-01-05T04:58:05;7.13;;;4.20;;
63095;SDS011;49184;55.596;37.770;2023-01-05T05:00:33;7.18;;;4.00;;
63095;SDS011;49184;55.596;37.770;2023-01-05T05:03:00;9.30;;;4.50;;
63095;SDS011;49184;55.596;37.770;2023-01-05T05:05:27;10.82;;;4.47;;
63095;SDS011;49184;55.596;37.770;2023-01-05T05:07:55;10.02;;;4.78;;
63095;SDS011;49184;55.596;37.770;2023-01-05T05:10:25;7.05;;;4.53;;
63095;SDS011;49184;55.596;37.770;2023-01-05T05:12:51;8.13;;;4.50;;
63095;SDS011;49184;55.596;37.770;2023-01-05T05:15:17;8.13;;;4.57;;
63095;SDS011;49184;55.596;37.770;2023-01-05T05:17:47;9.07;;;4.43;;
63095;SDS011;49184;55.596;37.770;2023-01-05T05:20:16;8.82;;;4.38;;
63095;SDS011;49184;55.596;37.770;2023-01-05T05:22:49;11.43;;;4.75;;
63095;SDS011;49184;55.596;37.770;2023-01-05T05:25:25;11.18;;;6.43;;
63095;SDS011;49184;55.596;37.770;2023-01-05T05:28:28;13.20;;;6.28;;
63095;SDS011;49184;55.596;37.770;2023-01-05T05:30:57;13.15;;;7.05;;
63095;SDS011;49184;55.596;37.770;2023-01-05T05:33:43;11.25;;;5.68;;
63095;SDS011;49184;55.596;37.770;2023-01-05T05:36:09;10.40;;;6.07;;
63095;SDS011;49184;55.596;37.770;2023-01-05T05:38:35;8.52;;;4.95;;
63095;SDS011;49184;55.596;37.770;2023-01-05T05:41:01;10.68;;;5.30;;
63095;SDS011;49184;55.596;37.770;2023-01-05T05:46:19;13.20;;;5.55;;
63095;SDS011;49184;55.596;37.770;2023-01-05T05:48:45;9.02;;;5.00;;
63095;SDS011;49184;55.596;37.770;2023-01-05T05:51:11;10.23;;;5.60;;
63095;SDS011;49184;55.596;37.770;2023-01-05T05:53:37;13.70;;;4.68;;
63095;SDS011;49184;55.596;37.770;2023-01-05T05:56:03;11.07;;;5.35;;
63095;SDS011;49184;55.596;37.770;2023-01-05T05:58:33;15.95;;;7.90;;
63095;SDS011;49184;55.596;37.770;2023-01-05T06:00:59;14.85;;;6.20;;
63095;SDS011;49184;55.596;37.770;2023-01-05T06:03:25;14.45;;;7.30;;
63095;SDS011;49184;55.596;37.770;2023-01-05T06:05:51;25.95;;;9.80;;
63095;SDS011;49184;55.596;37.770;2023-01-05T06:08:18;17.40;;;7.78;;
63095;SDS011;49184;55.596;37.770;2023-01-05T06:10:45;17.77;;;7.72;;
63095;SDS011;49184;55.596;37.770;2023-01-05T06:13:14;17.10;;;6.95;;
63095;SDS011;49184;55.596;37.770;2023-01-05T06:15:40;18.98;;;7.32;;
63095;SDS011;49184;55.596;37.770;2023-01-05T06:18:07;18.10;;;7.33;;
63095;SDS011;49184;55.596;37.770;2023-01-05T06:20:34;18.63;;;7.85;;
63095;SDS011;49184;55.596;37.770;2023-01-05T06:23:02;18.20;;;7.25;;
63095;SDS011;49184;55.596;37.770;2023-01-05T06:25:29;13.30;;;5.18;;
63095;SDS011;49184;55.596;37.770;2023-01-05T06:27:55;13.15;;;5.55;;
63095;SDS011;49184;55.596;37.770;2023-01-05T06:30:26;13.07;;;5.15;;
63095;SDS011;49184;55.596;37.770;2023-01-05T06:32:53;9.32;;;5.10;;
63095;SDS011;49184;55.596;37.770;2023-01-05T06:42:20;11.18;;;4.75;;
63095;SDS011;49184;55.596;37.770;2023-01-05T06:44:46;10.23;;;4.53;;
63095;SDS011;49184;55.596;37.770;2023-01-05T06:47:12;21.20;;;4.85;;
63095;SDS011;49184;55.596;37.770;2023-01-05T06:49:54;13.55;;;5.22;;
63095;SDS011;49184;55.596;37.770;2023-01-05T06:52:21;8.30;;;4.55;;
63095;SDS011;49184;55.596;37.770;2023-01-05T06:54:48;10.32;;;4.63;;
63095;SDS011;49184;55.596;37.770;2023-01-05T06:57:14;13.18;;;4.53;;
63095;SDS011;49184;55.596;37.770;2023-01-05T06:59:40;16.10;;;5.50;;
63095;SDS011;49184;55.596;37.770;2023-01-05T07:02:14;9.00;;;4.03;;
63095;SDS011;49184;55.596;37.770;2023-01-05T07:04:42;11.13;;;4.47;;
63095;SDS011;49184;55.596;37.770;2023-01-05T07:07:10;8.52;;;3.95;;
63095;SDS011;49184;55.596;37.770;2023-01-05T07:09:39;14.35;;;4.32;;
63095;SDS011;49184;55.596;37.770;2023-01-05T07:12:07;7.68;;;4.22;;
63095;SDS011;49184;55.596;37.770;2023-01-05T07:14:33;6.35;;;3.70;;
63095;SDS011;49184;55.596;37.770;2023-01-05T07:16:59;6.97;;;3.88;;
63095;SDS011;49184;55.596;37.770;2023-01-05T07:19:27;8.52;;;3.67;;
63095;SDS011;49184;55.596;37.770;2023-01-05T07:21:53;7.80;;;3.90;;
63095;SDS011;49184;55.596;37.770;2023-01-05T07:24:19;11.10;;;5.32;;
63095;SDS011;49184;55.596;37.770;2023-01-05T07:26:47;7.00;;;3.97;;
63095;SDS011;49184;55.596;37.770;2023-01-05T07:29:15;7.80;;;3.35;;
63095;SDS011;49184;55.596;37.770;2023-01-05T07:31:41;11.77;;;4.60;;
63095;SDS011;49184;55.596;37.770;2023-01-05T07:34:08;8.57;;;4.30;;
63095;SDS011;49184;55.596;37.770;2023-01-05T07:36:35;11.50;;;4.22;;
63095;SDS011;49184;55.596;37.770;2023-01-05T07:39:06;11.88;;;4.05;;
63095;SDS011;49184;55.596;37.770;2023-01-05T07:41:33;13.98;;;5.00;;
63095;SDS011;49184;55.596;37.770;2023-01-05T07:43:59;12.02;;;5.15;;
63095;SDS011;49184;55.596;37.770;2023-01-05T07:46:25;12.45;;;6.50;;
63095;SDS011;49184;55.596;37.770;2023-01-05T07:48:53;11.38;;;5.57;;
63095;SDS011;49184;55.596;37.770;2023-01-05T07:51:19;9.90;;;5.40;;
63095;SDS011;49184;55.596;37.770;2023-01-05T07:53:55;11.32;;;5.55;;
63095;SDS011;49184;55.596;37.770;2023-01-05T07:56:22;10.90;;;5.55;;
63095;SDS011;49184;55.596;37.770;2023-01-05T07:58:55;14.82;;;6.10;;
63095;SDS011;49184;55.596;37.770;2023-01-05T08:01:21;13.68;;;5.38;;
63095;SDS011;49184;55.596;37.770;2023-01-05T08:03:47;9.95;;;5.78;;
63095;SDS011;49184;55.596;37.770;2023-01-05T08:06:14;12.00;;;5.55;;
63095;SDS011;49184;55.596;37.770;2023-01-05T08:08:45;9.85;;;5.35;;
63095;SDS011;49184;55.596;37.770;2023-01-05T08:11:12;11.35;;;5.30;;
63095;SDS011;49184;55.596;37.770;2023-01-05T08:13:44;10.02;;;5.13;;
63095;SDS011;49184;55.596;37.770;2023-01-05T08:19:43;15.50;;;5.72;;
63095;SDS011;49184;55.596;37.770;2023-01-05T08:22:10;9.68;;;5.80;;
63095;SDS011;49184;55.596;37.770;2023-01-05T08:24:36;11.13;;;5.68;;
63095;SDS011;49184;55.596;37.770;2023-01-05T08:27:07;13.57;;;6.03;;
63095;SDS011;49184;55.596;37.770;2023-01-05T08:30:20;10.48;;;5.50;;
63095;SDS011;49184;55.596;37.770;2023-01-05T08:32:46;12.95;;;5.32;;
63095;SDS011;49184;55.596;37.770;2023-01-05T08:35:13;8.90;;;5.30;;
63095;SDS011;49184;55.596;37.770;2023-01-05T08:40:27;10.82;;;5.25;;
63095;SDS011;49184;55.596;37.770;2023-01-05T08:42:53;11.35;;;5.95;;
63095;SDS011;49184;55.596;37.770;2023-01-05T08:45:21;10.52;;;5.60;;
63095;SDS011;49184;55.596;37.770;2023-01-05T08:50:16;9.43;;;5.18;;
63095;SDS011;49184;55.596;37.770;2023-01-05T08:52:43;11.10;;;5.30;;
63095;SDS011;49184;55.596;37.770;2023-01-05T08:55:09;10.27;;;5.53;;
63095;SDS011;49184;55.596;37.770;2023-01-05T08:57:36;11.07;;;5.77;;
63095;SDS011;49184;55.596;37.770;2023-01-05T09:00:13;11.60;;;6.22;;
63095;SDS011;49184;55.596;37.770;2023-01-05T09:03:13;10.50;;;5.88;;
63095;SDS011;49184;55.596;37.770;2023-01-05T09:05:40;12.23;;;6.03;;
63095;SDS011;49184;55.596;37.770;2023-01-05T09:11:06;13.27;;;6.45;;
63095;SDS011;49184;55.596;37.770;2023-01-05T09:14:02;10.48;;;5.75;;
63095;SDS011;49184;55.596;37.770;2023-01-05T09:16:32;13.88;;;6.63;;
63095;SDS011;49184;55.596;37.770;2023-01-05T09:19:00;14.25;;;6.28;;
63095;SDS011;49184;55.596;37.770;2023-01-05T09:21:28;15.23;;;6.65;;
63095;SDS011;49184;55.596;37.770;2023-01-05T09:23:55;12.97;;;7.13;;
63095;SDS011;49184;55.596;37.770;2023-01-05T09:26:22;18.00;;;7.65;;
63095;SDS011;49184;55.596;37.770;2023-01-05T09:28:49;17.98;;;7.25;;
63095;SDS011;49184;55.596;37.770;2023-01-05T09:34:03;13.27;;;6.90;;
63095;SDS011;49184;55.596;37.770;2023-01-05T09:36:29;14.10;;;6.55;;
63095;SDS011;49184;55.596;37.770;2023-01-05T09:38:56;17.15;;;7.32;;
63095;SDS011;49184;55.596;37.770;2023-01-05T09:41:31;11.55;;;6.63;;
63095;SDS011;49184;55.596;37.770;2023-01-05T09:47:17;12.77;;;6.35;;
63095;SDS011;49184;55.596;37.770;2023-01-05T09:49:51;15.73;;;7.93;;
63095;SDS011;49184;55.596;37.770;2023-01-05T09:52:22;16.67;;;7.50;;
63095;SDS011;49184;55.596;37.770;2023-01-05T09:54:52;15.18;;;7.95;;
63095;SDS011;49184;55.596;37.770;2023-01-05T09:57:23;14.85;;;7.47;;
63095;SDS011;49184;55.596;37.770;2023-01-05T10:00:06;15.32;;;7.82;;
63095;SDS011;49184;55.596;37.770;2023-01-05T10:05:12;16.27;;;9.35;;
63095;SDS011;49184;55.596;37.770;2023-01-05T10:08:17;23.40;;;8.15;;
63095;SDS011;49184;55.596;37.770;2023-01-05T10:14:05;14.50;;;8.13;;
63095;SDS011;49184;55.596;37.770;2023-01-05T10:16:39;16.95;;;8.07;;
63095;SDS011;49184;55.596;37.770;2023-01-05T10:19:13;18.27;;;8.75;;
63095;SDS011;49184;55.596;37.770;2023-01-05T10:30:57;15.68;;;7.47;;
63095;SDS011;49184;55.596;37.770;2023-01-05T10:38:59;14.77;;;7.07;;
63095;SDS011;49184;55.596;37.770;2023-01-05T10:41:58;14.90;;;6.75;;
63095;SDS011;49184;55.596;37.770;2023-01-05T10:47:34;18.80;;;8.47;;
63095;SDS011;49184;55.596;37.770;2023-01-05T10:50:03;17.48;;;8.32;;
63095;SDS011;49184;55.596;37.770;2023-01-05T10:53:08;11.73;;;6.10;;
63095;SDS011;49184;55.596;37.770;2023-01-05T10:59:18;15.48;;;6.50;;
63095;SDS011;49184;55.596;37.770;2023-01-05T11:01:45;15.18;;;6.35;;
63095;SDS011;49184;55.596;37.770;2023-01-05T11:05:04;14.05;;;6.18;;
63095;SDS011;49184;55.596;37.770;2023-01-05T11:07:56;11.60;;;5.88;;
63095;SDS011;49184;55.596;37.770;2023-01-05T11:13:41;13.32;;;5.32;;
63095;SDS011;49184;55.596;37.770;2023-01-05T11:19:15;18.73;;;6.55;;
63095;SDS011;49184;55.596;37.770;2023-01-05T11:21:44;16.23;;;5.28;;
63095;SDS011;49184;55.596;37.770;2023-01-05T11:42:57;13.65;;;7.05;;
63095;SDS011;49184;55.596;37.770;2023-01-05T11:47:57;9.52;;;4.90;;
63095;SDS011;49184;55.596;37.770;2023-01-05T11:50:30;11.52;;;5.63;;
63095;SDS011;49184;55.596;37.770;2023-01-05T11:52:59;15.65;;;6.20;;
63095;SDS011;49184;55.596;37.770;2023-01-05T11:55:34;13.88;;;5.65;;
63095;SDS011;49184;55.596;37.770;2023-01-05T11:58:23;14.07;;;5.45;;
63095;SDS011;49184;55.596;37.770;2023-01-05T12:04:21;15.38;;;6.72;;
63095;SDS011;49184;55.596;37.770;2023-01-05T12:11:18;14.13;;;4.82;;
63095;SDS011;49184;55.596;37.770;2023-01-05T12:17:34;11.85;;;5.50;;
63095;SDS011;49184;55.596;37.770;2023-01-05T12:49:04;12.63;;;5.82;;
63095;SDS011;49184;55.596;37.770;2023-01-05T12:52:09;18.90;;;6.43;;
63095;SDS011;49184;55.596;37.770;2023-01-05T12:54:48;12.38;;;5.07;;
63095;SDS011;49184;55.596;37.770;2023-01-05T12:57:35;13.88;;;6.35;;
63095;SDS011;49184;55.596;37.770;2023-01-05T13:00:07;12.43;;;6.20;;
63095;SDS011;49184;55.596;37.770;2023-01-05T13:02:56;15.43;;;5.35;;
63095;SDS011;49184;55.596;37.770;2023-01-05T13:05:31;16.23;;;5.95;;
63095;SDS011;49184;55.596;37.770;2023-01-05T13:14:05;12.27;;;5.40;;
63095;SDS011;49184;55.596;37.770;2023-01-05T13:16:36;13.07;;;5.65;;
63095;SDS011;49184;55.596;37.770;2023-01-05T13:21:45;13.00;;;5.20;;
63095;SDS011;49184;55.596;37.770;2023-01-05T13:43:08;14.48;;;5.60;;
63095;SDS011;49184;55.596;37.770;2023-01-05T13:46:10;11.98;;;6.50;;
63095;SDS011;49184;55.596;37.770;2023-01-05T13:49:09;22.85;;;6.78;;
63095;SDS011;49184;55.596;37.770;2023-01-05T13:51:59;11.68;;;5.85;;
63095;SDS011;49184;55.596;37.770;2023-01-05T13:57:39;14.77;;;5.45;;
63095;SDS011;49184;55.596;37.770;2023-01-05T14:03:22;14.65;;;5.47;;
63095;SDS011;49184;55.596;37.770;2023-01-05T14:06:43;14.85;;;6.22;;
63095;SDS011;49184;55.596;37.770;2023-01-05T14:09:14;12.75;;;5.68;;
63095;SDS011;49184;55.596;37.770;2023-01-05T14:23:00;19.40;;;6.88;;
63095;SDS011;49184;55.596;37.770;2023-01-05T14:31:37;16.63;;;6.70;;
63095;SDS011;49184;55.596;37.770;2023-01-05T14:34:12;18.63;;;6.65;;
63095;SDS011;49184;55.596;37.770;2023-01-05T14:36:43;15.68;;;6.82;;
63095;SDS011;49184;55.596;37.770;2023-01-05T14:45:36;19.25;;;6.47;;
63095;SDS011;49184;55.596;37.770;2023-01-05T14:48:06;12.68;;;5.47;;
63095;SDS011;49184;55.596;37.770;2023-01-05T14:53:59;14.55;;;5.38;;
63095;SDS011;49184;55.596;37.770;2023-01-05T14:56:31;12.85;;;5.28;;
63095;SDS011;49184;55.596;37.770;2023-01-05T14:59:13;10.38;;;5.32;;
63095;SDS011;49184;55.596;37.770;2023-01-05T15:01:51;10.60;;;5.10;;
63095;SDS011;49184;55.596;37.770;2023-01-05T15:04:30;11.93;;;4.93;;
63095;SDS011;49184;55.596;37.770;2023-01-05T15:07:07;11.15;;;4.80;;
63095;SDS011;49184;55.596;37.770;2023-01-05T15:30:09;20.88;;;5.50;;
63095;SDS011;49184;55.596;37.770;2023-01-05T15:41:17;10.95;;;4.78;;
63095;SDS011;49184;55.596;37.770;2023-01-05T15:43:48;11.48;;;5.20;;
63095;SDS011;49184;55.596;37.770;2023-01-05T15:46:16;12.30;;;5.47;;
63095;SDS011;49184;55.596;37.770;2023-01-05T15:48:47;15.68;;;5.38;;
63095;SDS011;49184;55.596;37.770;2023-01-05T15:51:37;11.75;;;5.40;;
63095;SDS011;49184;55.596;37.770;2023-01-05T15:54:04;14.90;;;5.28;;
63095;SDS011;49184;55.596;37.770;2023-01-05T15:56:31;16.83;;;5.45;;
63095;SDS011;49184;55.596;37.770;2023-01-05T15:59:00;14.32;;;5.78;;
63095;SDS011;49184;55.596;37.770;2023-01-05T16:01:28;17.65;;;5.60;;
63095;SDS011;49184;55.596;37.770;2023-01-05T16:04:12;16.70;;;5.55;;
63095;SDS011;49184;55.596;37.770;2023-01-05T16:06:42;15.90;;;6.15;;
63095;SDS011;49184;55.596;37.770;2023-01-05T16:11:50;12.70;;;4.93;;
63095;SDS011;49184;55.596;37.770;2023-01-05T16:17:31;12.02;;;4.53;;
63095;SDS011;49184;55.596;37.770;2023-01-05T16:20:03;11.93;;;4.47;;
63095;SDS011;49184;55.596;37.770;2023-01-05T16:23:09;13.57;;;5.20;;
63095;SDS011;49184;55.596;37.770;2023-01-05T16:26:23;15.75;;;5.88;;
63095;SDS011;49184;55.596;37.770;2023-01-05T16:45:30;14.18;;;6.32;;
63095;SDS011;49184;55.596;37.770;2023-01-05T16:47:58;14.30;;;5.78;;
63095;SDS011;49184;55.596;37.770;2023-01-05T16:50:53;15.45;;;6.38;;
63095;SDS011;49184;55.596;37.770;2023-01-05T16:59:52;16.48;;;6.00;;
63095;SDS011;49184;55.596;37.770;2023-01-05T17:06:00;17.63;;;5.80;;
63095;SDS011;49184;55.596;37.770;2023-01-05T17:08:30;17.48;;;6.28;;
63095;SDS011;49184;55.596;37.770;2023-01-05T17:11:01;22.80;;;6.07;;
63095;SDS011;49184;55.596;37.770;2023-01-05T17:13:36;18.75;;;5.97;;
63095;SDS011;49184;55.596;37.770;2023-01-05T17:16:08;14.95;;;5.72;;
63095;SDS011;49184;55.596;37.770;2023-01-05T17:18:39;11.30;;;5.03;;
63095;SDS011;49184;55.596;37.770;2023-01-05T17:21:06;14.65;;;5.53;;
63095;SDS011;49184;55.596;37.770;2023-01-05T17:23:37;15.75;;;5.75;;
63095;SDS011;49184;55.596;37.770;2023-01-05T17:30:21;14.32;;;5.18;;
63095;SDS011;49184;55.596;37.770;2023-01-05T17:33:05;12.35;;;4.75;;
63095;SDS011;49184;55.596;37.770;2023-01-05T17:35:36;18.13;;;5.43;;
63095;SDS011;49184;55.596;37.770;2023-01-05T17:40:59;12.38;;;5.40;;
63095;SDS011;49184;55.596;37.770;2023-01-05T17:43:28;9.60;;;4.40;;
63095;SDS011;49184;55.596;37.770;2023-01-05T17:48:24;11.25;;;4.80;;
63095;SDS011;49184;55.596;37.770;2023-01-05T17:50:57;18.13;;;6.30;;
63095;SDS011;49184;55.596;37.770;2023-01-05T17:53:24;14.55;;;5.95;;
63095;SDS011;49184;55.596;37.770;2023-01-05T17:56:10;20.23;;;6.63;;
63095;SDS011;49184;55.596;37.770;2023-01-05T17:59:10;19.48;;;6.32;;
63095;SDS011;49184;55.596;37.770;2023-01-05T18:01:43;23.40;;;6.75;;
63095;SDS011;49184;55.596;37.770;2023-01-05T18:04:10;19.88;;;6.18;;
63095;SDS011;49184;55.596;37.770;2023-01-05T18:07:01;17.75;;;6.40;;
63095;SDS011;49184;55.596;37.770;2023-01-05T18:09:31;18.00;;;6.82;;
63095;SDS011;49184;55.596;37.770;2023-01-05T18:11:59;15.55;;;5.88;;
63095;SDS011;49184;55.596;37.770;2023-01-05T18:14:29;16.80;;;6.35;;
63095;SDS011;49184;55.596;37.770;2023-01-05T18:17:00;12.50;;;5.80;;
63095;SDS011;49184;55.596;37.770;2023-01-05T18:25:38;17.02;;;7.05;;
63095;SDS011;49184;55.596;37.770;2023-01-05T18:28:08;13.73;;;5.95;;
63095;SDS011;49184;55.596;37.770;2023-01-05T18:30:35;22.38;;;6.97;;
63095;SDS011;49184;55.596;37.770;2023-01-05T18:33:01;15.45;;;5.63;;
63095;SDS011;49184;55.596;37.770;2023-01-05T18:35:30;10.23;;;4.57;;
63095;SDS011;49184;55.596;37.770;2023-01-05T18:37:58;15.32;;;5.78;;
63095;SDS011;49184;55.596;37.770;2023-01-05T18:40:31;10.15;;;3.55;;
63095;SDS011;49184;55.596;37.770;2023-01-05T18:43:07;14.77;;;4.80;;
63095;SDS011;49184;55.596;37.770;2023-01-05T18:48:32;13.80;;;5.05;;
63095;SDS011;49184;55.596;37.770;2023-01-05T18:51:02;12.00;;;4.18;;
63095;SDS011;49184;55.596;37.770;2023-01-05T18:56:21;17.17;;;4.60;;
63095;SDS011;49184;55.596;37.770;2023-01-05T18:58:53;14.93;;;5.40;;
63095;SDS011;49184;55.596;37.770;2023-01-05T19:01:21;18.05;;;5.75;;
63095;SDS011;49184;55.596;37.770;2023-01-05T19:03:49;11.55;;;5.53;;
63095;SDS011;49184;55.596;37.770;2023-01-05T19:06:22;13.35;;;4.90;;
63095;SDS011;49184;55.596;37.770;2023-01-05T19:08:51;12.43;;;4.68;;
63095;SDS011;49184;55.596;37.770;2023-01-05T19:11:24;11.30;;;4.28;;
63095;SDS011;49184;55.596;37.770;2023-01-05T19:14:04;15.52;;;5.25;;
63095;SDS011;49184;55.596;37.770;2023-01-05T19:16:32;72.13;;;27.77;;
63095;SDS011;49184;55.596;37.770;2023-01-05T19:19:06;22.17;;;7.82;;
63095;SDS011;49184;55.596;37.770;2023-01-05T19:21:37;46.78;;;16.42;;
63095;SDS011;49184;55.596;37.770;2023-01-05T19:24:17;34.97;;;12.40;;
63095;SDS011;49184;55.596;37.770;2023-01-05T19:26:49;42.17;;;13.65;;
63095;SDS011;49184;55.596;37.770;2023-01-05T19:29:17;47.95;;;15.88;;
63095;SDS011;49184;55.596;37.770;2023-01-05T19:31:45;25.83;;;9.68;;
63095;SDS011;49184;55.596;37.770;2023-01-05T19:34:18;38.25;;;13.85;;
63095;SDS011;49184;55.596;37.770;2023-01-05T19:36:47;27.10;;;9.55;;
63095;SDS011;49184;55.596;37.770;2023-01-05T19:39:17;27.30;;;10.27;;
63095;SDS011;49184;55.596;37.770;2023-01-05T19:42:11;24.42;;;9.80;;
63095;SDS011;49184;55.596;37.770;2023-01-05T19:44:37;30.00;;;11.10;;
63095;SDS011;49184;55.596;37.770;2023-01-05T19:47:11;44.45;;;16.10;;
63095;SDS011;49184;55.596;37.770;2023-01-05T19:49:45;33.95;;;9.98;;
63095;SDS011;49184;55.596;37.770;2023-01-05T19:52:16;27.48;;;8.65;;
63095;SDS011;49184;55.596;37.770;2023-01-05T19:54:42;17.58;;;6.90;;
63095;SDS011;49184;55.596;37.770;2023-01-05T20:00:25;29.45;;;9.23;;
63095;SDS011;49184;55.596;37.770;2023-01-05T20:11:48;19.20;;;6.95;;
63095;SDS011;49184;55.596;37.770;2023-01-05T20:18:32;19.27;;;6.60;;
63095;SDS011;49184;55.596;37.770;2023-01-05T20:21:11;17.90;;;6.25;;